Time;durP1;ratioP1;P1;durP2;ratioP2;P2;SDS_P1;SDS_P2;PMS_P1;PMS_P2;Temp;Humidity;BMP_temperature;BMP_pressure;BME280_temperature;BME280_humidity;BME280_pressure;Samples;Min_cycle;Max_cycle;Signal;HPM_P1;HPM_P2
2021/03/09 00:03:33;;;;;;;12.18;6.03;;;;;;;-5.26;67.72;99578.89;1755338;79;23370;-68
2021/03/09 00:06:00;;;;;;;11.63;5.05;;;;;;;-5.26;67.77;99574.91;1721043;83;21164;-68
2021/03/09 00:08:28;;;;;;;11.00;4.58;;;;;;;-5.20;67.78;99580.34;1716472;82;21210;-69
2021/03/09 00:10:56;;;;;;;10.15;4.30;;;;;;;-5.15;67.83;99576.67;1722851;83;21177;-68
2021/03/09 00:13:24;;;;;;;9.25;3.80;;;;;;;-5.08;67.74;99579.45;1710630;83;21188;-69
2021/03/09 00:15:51;;;;;;;10.75;3.87;;;;;;;-5.02;67.80;99578.73;1694001;83;21581;-68
2021/03/09 00:18:19;;;;;;;7.08;3.10;;;;;;;-4.95;67.78;99575.70;1710164;83;21125;-68
2021/03/09 00:20:48;;;;;;;10.82;3.40;;;;;;;-4.91;67.77;99575.68;1697673;83;21152;-69
2021/03/09 00:23:15;;;;;;;9.53;3.75;;;;;;;-4.82;67.58;99576.47;1713931;82;21704;-69
2021/03/09 00:25:43;;;;;;;9.80;3.47;;;;;;;-4.78;67.66;99574.58;1707359;83;21594;-69
2021/03/09 00:28:11;;;;;;;11.35;4.10;;;;;;;-4.77;67.76;99578.06;1713887;82;21206;-69
2021/03/09 00:30:38;;;;;;;9.43;3.62;;;;;;;-4.69;67.97;99580.17;1626807;87;21755;-68
2021/03/09 00:33:06;;;;;;;10.03;3.10;;;;;;;-4.63;67.82;99580.78;1657011;86;21245;-69
2021/03/09 00:35:33;;;;;;;8.78;2.85;;;;;;;-4.58;67.72;99586.89;1681910;85;21190;-69
2021/03/09 00:38:01;;;;;;;13.10;3.92;;;;;;;-4.57;67.70;99580.05;1665680;84;21204;-69
2021/03/09 00:40:28;;;;;;;9.20;3.45;;;;;;;-4.51;67.60;99579.86;1655705;87;21171;-68
2021/03/09 00:42:56;;;;;;;13.25;3.45;;;;;;;-4.47;67.63;99577.67;1691185;83;21748;-69
2021/03/09 00:45:24;;;;;;;12.28;3.27;;;;;;;-4.44;67.57;99582.13;1703314;83;21148;-69
2021/03/09 00:47:53;;;;;;;12.40;4.42;;;;;;;-4.40;67.71;99578.11;1691406;83;21792;-69
2021/03/09 00:50:20;;;;;;;9.10;3.10;;;;;;;-4.36;67.59;99575.41;1678720;85;21160;-69
2021/03/09 00:52:48;;;;;;;9.25;3.52;;;;;;;-4.35;67.48;99577.55;1712270;82;21307;-68
2021/03/09 00:55:15;;;;;;;9.80;3.60;;;;;;;-4.28;67.45;99572.66;1720070;83;21209;-68
2021/03/09 00:57:43;;;;;;;12.40;3.30;;;;;;;-4.32;67.22;99579.34;1720240;83;21192;-69
2021/03/09 01:00:12;;;;;;;9.83;4.00;;;;;;;-4.24;67.26;99577.11;1717722;83;21593;-69
2021/03/09 01:02:39;;;;;;;11.22;4.37;;;;;;;-4.26;67.35;99575.15;1697253;83;21114;-70
2021/03/09 01:05:08;;;;;;;11.00;4.20;;;;;;;-4.22;67.33;99571.96;1692977;84;21174;-69
2021/03/09 01:07:35;;;;;;;9.05;4.08;;;;;;;-4.21;67.14;99572.76;1690376;83;21620;-69
2021/03/09 01:10:03;;;;;;;8.73;4.60;;;;;;;-4.15;66.97;99570.73;1642482;86;21224;-70
2021/03/09 01:12:30;;;;;;;7.95;3.52;;;;;;;-4.29;67.01;99554.25;1657523;86;21204;-70
2021/03/09 01:14:58;;;;;;;7.22;3.47;;;;;;;-4.05;66.70;99582.75;1695931;83;21176;-70
2021/03/09 01:17:25;;;;;;;6.28;2.67;;;;;;;-3.96;66.23;99570.67;1652868;86;21295;-70
2021/03/09 01:19:53;;;;;;;6.62;3.22;;;;;;;-3.97;66.23;99581.84;1715338;83;21143;-69
2021/03/09 01:22:20;;;;;;;4.92;2.50;;;;;;;-3.94;66.32;99580.64;1704630;83;21201;-70
2021/03/09 01:24:47;;;;;;;5.60;2.47;;;;;;;-3.93;66.36;99584.96;1694178;85;21330;-69
2021/03/09 01:27:16;;;;;;;4.85;2.27;;;;;;;-3.90;65.78;99584.09;1694807;83;21149;-70
2021/03/09 01:29:43;;;;;;;5.20;2.80;;;;;;;-3.91;65.72;99578.44;1694304;85;21250;-70
2021/03/09 01:32:11;;;;;;;4.90;2.70;;;;;;;-3.90;65.72;99585.92;1704104;83;21632;-69
2021/03/09 01:34:39;;;;;;;6.67;2.37;;;;;;;-3.87;65.08;99582.39;1707620;83;21600;-69
2021/03/09 01:37:06;;;;;;;4.08;2.45;;;;;;;-3.82;64.30;99575.17;1721405;83;21641;-69
2021/03/09 01:39:34;;;;;;;5.90;2.47;;;;;;;-3.86;63.70;99576.04;1721100;83;21633;-68
2021/03/09 01:42:02;;;;;;;5.97;2.77;;;;;;;-3.81;63.97;99571.52;1719267;83;21181;-69
2021/03/09 01:44:30;;;;;;;5.22;2.02;;;;;;;-3.80;63.46;99572.67;1658400;86;21191;-69
2021/03/09 01:47:02;;;;;;;5.20;1.82;;;;;;;-3.80;63.43;99570.02;1721057;83;21280;-68
2021/03/09 01:49:33;;;;;;;4.80;2.00;;;;;;;-3.78;63.25;99577.79;1698852;83;21210;-69
2021/03/09 01:52:02;;;;;;;4.35;1.85;;;;;;;-3.78;63.09;99575.96;1694052;85;21205;-68
2021/03/09 01:54:29;;;;;;;3.55;1.60;;;;;;;-3.75;62.95;99581.41;1707732;83;21615;-69
2021/03/09 01:56:56;;;;;;;3.05;1.65;;;;;;;-3.74;62.81;99578.58;1712410;83;21621;-69
2021/03/09 01:59:24;;;;;;;4.72;1.77;;;;;;;-3.71;62.80;99576.88;1699250;83;21616;-69
2021/03/09 02:01:51;;;;;;;5.28;2.08;;;;;;;-3.74;62.20;99583.06;1713384;83;21355;-70
2021/03/09 02:04:19;;;;;;;3.33;1.60;;;;;;;-3.72;61.61;99584.52;1722850;83;21149;-69
2021/03/09 02:06:47;;;;;;;4.78;2.20;;;;;;;-3.72;61.36;99589.84;1707519;83;21164;-69
2021/03/09 02:09:14;;;;;;;4.90;1.98;;;;;;;-3.71;60.80;99584.85;1693909;85;21196;-66
2021/03/09 02:12:00;;;;;;;3.77;2.05;;;;;;;-3.67;61.33;99592.80;1696338;83;21149;-68
2021/03/09 02:14:51;;;;;;;5.28;2.55;;;;;;;-3.66;61.10;99593.12;1673401;83;21632;-68
2021/03/09 02:17:32;;;;;;;5.80;2.40;;;;;;;-3.63;61.09;99602.06;1710125;83;21213;-68
2021/03/09 02:20:15;;;;;;;5.08;2.08;;;;;;;-3.65;61.27;99606.72;1649230;86;21760;-68
2021/03/09 02:23:19;;;;;;;8.70;3.10;;;;;;;-3.68;61.01;99616.91;1694070;83;21160;-69
2021/03/09 02:26:24;;;;;;;9.25;3.05;;;;;;;-3.69;60.98;99608.12;1693518;85;21168;-68
2021/03/09 02:29:19;;;;;;;4.17;1.47;;;;;;;-3.71;61.17;99603.48;1702193;83;21129;-68
2021/03/09 02:31:49;;;;;;;3.60;1.00;;;;;;;-3.71;60.43;99620.77;1698508;83;21161;-67
2021/03/09 02:34:22;;;;;;;3.00;1.00;;;;;;;-3.75;60.85;99624.80;1694052;85;21148;-68
2021/03/09 02:36:49;;;;;;;2.17;0.80;;;;;;;-3.77;60.93;99628.16;1709403;83;21129;-67
2021/03/09 02:39:17;;;;;;;4.10;1.12;;;;;;;-3.79;61.67;99636.01;1720358;83;21173;-68
2021/03/09 02:41:46;;;;;;;2.55;0.80;;;;;;;-3.77;63.14;99633.48;1722932;83;21173;-67
2021/03/09 02:44:19;;;;;;;3.30;1.00;;;;;;;-3.82;63.53;99630.53;1722676;82;21161;-68
2021/03/09 02:46:48;;;;;;;2.80;1.07;;;;;;;-3.82;63.72;99633.19;1696999;83;21173;-68
2021/03/09 02:49:17;;;;;;;3.75;1.40;;;;;;;-3.84;64.04;99630.39;1705256;83;21173;-68
2021/03/09 02:51:45;;;;;;;3.35;1.25;;;;;;;-3.82;64.07;99634.52;1710081;83;21576;-68
2021/03/09 02:54:15;;;;;;;3.87;1.90;;;;;;;-3.82;64.00;99631.02;1701395;83;21188;-68
2021/03/09 02:56:44;;;;;;;4.30;1.50;;;;;;;-3.77;63.37;99629.98;1710522;83;21121;-68
2021/03/09 02:59:17;;;;;;;4.05;1.52;;;;;;;-3.81;63.41;99631.36;1711532;82;21283;-69
2021/03/09 03:01:46;;;;;;;7.72;2.00;;;;;;;-3.80;63.16;99631.69;1703471;83;21177;-69
2021/03/09 03:04:17;;;;;;;4.45;1.60;;;;;;;-3.80;63.22;99631.69;1698730;84;21180;-68
2021/03/09 03:06:46;;;;;;;5.65;1.60;;;;;;;-3.81;62.34;99630.03;1696145;84;21141;-68
2021/03/09 03:09:16;;;;;;;6.85;2.00;;;;;;;-3.77;62.66;99636.14;1689781;84;21194;-68
2021/03/09 03:11:45;;;;;;;4.87;1.45;;;;;;;-3.80;62.66;99629.86;1635468;87;21592;-68
2021/03/09 03:14:12;;;;;;;3.80;1.50;;;;;;;-3.77;62.40;99642.78;1662660;86;21167;-68
2021/03/09 03:16:41;;;;;;;5.20;1.70;;;;;;;-3.78;62.31;99648.28;1683543;84;21126;-68
2021/03/09 03:19:09;;;;;;;5.62;1.80;;;;;;;-3.75;62.48;99645.25;1670419;84;21145;-68
2021/03/09 03:21:36;;;;;;;5.75;1.32;;;;;;;-3.76;62.71;99647.61;1708602;83;21705;-68
2021/03/09 03:24:06;;;;;;;2.50;1.02;;;;;;;-3.70;62.62;99646.38;1697989;82;21199;-69
2021/03/09 03:26:35;;;;;;;3.70;0.93;;;;;;;-3.70;62.28;99654.35;1693502;84;21602;-69
2021/03/09 03:29:05;;;;;;;2.25;0.88;;;;;;;-3.71;61.70;99661.17;1699438;82;21603;-69
2021/03/09 03:31:33;;;;;;;2.42;0.70;;;;;;;-3.69;61.70;99653.36;1680933;85;21600;-68
2021/03/09 03:34:01;;;;;;;2.22;0.80;;;;;;;-3.70;61.39;99657.52;1681445;84;21232;-69
2021/03/09 03:36:30;;;;;;;2.62;0.80;;;;;;;-3.69;61.21;99658.67;1700127;84;21146;-68
2021/03/09 03:38:57;;;;;;;1.82;0.60;;;;;;;-3.75;60.98;99656.72;1655820;84;21323;-68
2021/03/09 03:41:25;;;;;;;3.37;1.00;;;;;;;-3.73;61.67;99662.70;1709181;84;21178;-68
2021/03/09 03:43:52;;;;;;;3.65;0.95;;;;;;;-3.73;61.62;99669.35;1692743;83;21227;-69
2021/03/09 03:46:19;;;;;;;2.47;0.90;;;;;;;-3.70;61.78;99675.64;1681028;85;21177;-68
2021/03/09 03:48:47;;;;;;;2.35;0.80;;;;;;;-3.68;62.05;99677.59;1705572;82;21215;-69
2021/03/09 03:51:16;;;;;;;3.15;0.80;;;;;;;-3.72;62.25;99686.14;1667285;85;21175;-67
2021/03/09 03:54:01;;;;;;;2.40;0.78;;;;;;;-3.70;62.25;99689.44;1666334;86;21526;-68
2021/03/09 03:56:40;;;;;;;2.67;0.70;;;;;;;-3.74;62.43;99683.66;1694071;84;21679;-68
2021/03/09 03:59:18;;;;;;;2.27;0.88;;;;;;;-3.70;62.45;99691.59;1684030;84;21187;-68
2021/03/09 04:01:46;;;;;;;2.85;1.10;;;;;;;-3.72;62.91;99692.80;1709158;84;21202;-68
2021/03/09 04:04:14;;;;;;;3.77;1.22;;;;;;;-3.68;63.15;99696.22;1712624;83;21164;-68
2021/03/09 04:06:45;;;;;;;3.10;0.90;;;;;;;-3.61;63.31;99697.14;1717511;83;21310;-68
2021/03/09 04:09:13;;;;;;;2.33;0.88;;;;;;;-3.55;63.21;99695.61;1723032;82;21186;-68
2021/03/09 04:11:40;;;;;;;2.65;1.05;;;;;;;-3.52;63.51;99700.06;1718821;83;21182;-68
2021/03/09 04:14:12;;;;;;;2.95;1.17;;;;;;;-3.47;63.74;99698.69;1717962;83;21592;-68
2021/03/09 04:16:47;;;;;;;4.08;0.95;;;;;;;-3.41;63.69;99695.29;1718776;83;21177;-68
2021/03/09 04:19:14;;;;;;;2.85;0.98;;;;;;;-3.35;63.53;99700.70;1722939;82;21165;-68
2021/03/09 04:21:42;;;;;;;3.15;1.20;;;;;;;-3.29;63.58;99699.13;1693237;83;21173;-68
2021/03/09 04:24:11;;;;;;;2.83;1.30;;;;;;;-3.25;63.33;99699.92;1715371;82;21153;-67
2021/03/09 04:26:40;;;;;;;3.77;1.67;;;;;;;-3.29;63.10;99706.61;1673489;83;22127;-67
2021/03/09 04:29:09;;;;;;;2.50;1.20;;;;;;;-3.36;63.34;99710.19;1722895;82;21165;-67
2021/03/09 04:31:39;;;;;;;2.08;0.80;;;;;;;-3.56;63.69;99691.28;1719283;83;21319;-67
2021/03/09 04:34:07;;;;;;;3.27;1.00;;;;;;;-3.41;64.45;99712.59;1722782;82;21299;-69
2021/03/09 04:36:35;;;;;;;3.83;1.40;;;;;;;-3.51;66.04;99715.53;1722877;83;21599;-68
2021/03/09 04:39:04;;;;;;;3.30;1.12;;;;;;;-3.64;66.44;99713.48;1722927;82;21205;-70
2021/03/09 04:41:32;;;;;;;4.00;1.52;;;;;;;-3.71;67.10;99714.38;1715104;83;21161;-67
2021/03/09 04:44:00;;;;;;;3.75;1.52;;;;;;;-3.77;67.73;99717.27;1719390;82;21173;-70
2021/03/09 04:46:27;;;;;;;2.30;0.80;;;;;;;-3.80;68.07;99718.97;1674618;83;21177;-69
2021/03/09 04:48:56;;;;;;;1.82;0.80;;;;;;;-3.85;68.74;99734.63;1723044;82;21177;-73
2021/03/09 04:51:23;;;;;;;2.08;0.95;;;;;;;-3.93;69.31;99725.38;1722202;83;21181;-72
2021/03/09 04:53:52;;;;;;;2.22;1.00;;;;;;;-4.01;69.50;99730.78;1695122;83;21168;-72
2021/03/09 04:56:20;;;;;;;2.15;0.82;;;;;;;-3.99;69.74;99728.76;1651111;87;21175;-72
2021/03/09 04:58:48;;;;;;;2.15;1.00;;;;;;;-3.97;69.46;99719.28;1662479;86;21667;-72
2021/03/09 05:01:15;;;;;;;2.22;0.80;;;;;;;-3.93;69.57;99729.89;1651104;87;21353;-73
2021/03/09 05:03:43;;;;;;;2.05;1.10;;;;;;;-3.87;69.33;99729.17;1668586;85;21234;-72
2021/03/09 05:06:11;;;;;;;1.72;0.90;;;;;;;-3.86;69.29;99732.96;1662702;86;21215;-71
2021/03/09 05:08:38;;;;;;;3.02;0.93;;;;;;;-3.85;69.20;99736.45;1676554;85;21189;-72
2021/03/09 05:11:06;;;;;;;3.77;0.82;;;;;;;-3.84;69.05;99741.61;1662687;86;21766;-73
2021/03/09 05:13:34;;;;;;;2.72;1.02;;;;;;;-3.84;69.09;99748.25;1693061;84;21629;-71
2021/03/09 05:16:03;;;;;;;2.52;1.10;;;;;;;-3.81;68.96;99751.88;1713176;84;21149;-71
2021/03/09 05:18:31;;;;;;;2.72;1.10;;;;;;;-3.83;69.04;99755.23;1713128;84;21631;-71
2021/03/09 05:21:00;;;;;;;4.65;1.47;;;;;;;-3.80;69.28;99751.38;1713114;83;21169;-72
2021/03/09 05:23:27;;;;;;;3.72;1.60;;;;;;;-3.80;69.61;99762.86;1712984;84;21581;-72
2021/03/09 05:25:55;;;;;;;3.60;1.50;;;;;;;-3.78;69.74;99768.81;1713238;84;21174;-72
2021/03/09 05:28:23;;;;;;;3.42;1.50;;;;;;;-3.70;69.87;99764.76;1713084;84;21176;-72
2021/03/09 05:30:51;;;;;;;2.95;1.20;;;;;;;-3.68;69.82;99770.71;1713040;84;21194;-71
2021/03/09 05:33:19;;;;;;;3.83;1.70;;;;;;;-3.64;70.10;99781.83;1712340;84;21146;-72
2021/03/09 05:35:46;;;;;;;4.03;1.95;;;;;;;-3.64;69.86;99779.99;1713132;84;21624;-71
2021/03/09 05:38:13;;;;;;;4.17;1.90;;;;;;;-3.68;69.23;99789.84;1713076;83;21181;-71
2021/03/09 05:40:41;;;;;;;3.72;1.87;;;;;;;-3.72;69.08;99793.36;1713180;84;21162;-70
2021/03/09 05:43:10;;;;;;;2.62;1.22;;;;;;;-3.75;69.19;99789.73;1713218;84;21220;-70
2021/03/09 05:45:37;;;;;;;4.55;1.47;;;;;;;-3.72;69.23;99789.36;1713281;84;21740;-72
2021/03/09 05:48:06;;;;;;;6.05;1.82;;;;;;;-3.72;69.23;99796.55;1712964;84;21149;-72
2021/03/09 05:50:34;;;;;;;5.92;2.30;;;;;;;-3.67;69.58;99801.64;1689245;84;21181;-72
2021/03/09 05:53:01;;;;;;;5.83;2.20;;;;;;;-3.61;69.76;99797.42;1704578;82;21126;-73
2021/03/09 05:55:29;;;;;;;6.15;2.50;;;;;;;-3.55;69.83;99798.06;1682945;84;21689;-73
2021/03/09 05:57:57;;;;;;;5.47;2.08;;;;;;;-3.51;69.68;99802.02;1690917;84;21584;-71
2021/03/09 06:00:24;;;;;;;6.00;2.50;;;;;;;-3.49;69.56;99805.31;1703531;84;21182;-71
2021/03/09 06:05:30;;;;;;;7.03;2.52;;;;;;;-3.39;68.85;99818.36;1847727;76;22212;-70
2021/03/09 06:07:57;;;;;;;5.97;2.90;;;;;;;-3.47;68.38;99823.25;1846574;77;21107;-70
2021/03/09 06:10:25;;;;;;;5.17;2.42;;;;;;;-3.55;68.29;99825.50;1825422;78;21588;-70
2021/03/09 06:12:53;;;;;;;3.25;1.55;;;;;;;-3.56;68.08;99823.84;1825459;78;21492;-69
2021/03/09 06:15:20;;;;;;;2.75;1.32;;;;;;;-3.58;67.94;99829.02;1825472;78;21568;-69
2021/03/09 06:17:57;;;;;;;4.25;1.82;;;;;;;-3.63;65.80;99835.37;1825495;78;21125;-69
2021/03/09 06:20:29;;;;;;;5.90;1.92;;;;;;;-3.64;65.95;99841.19;1825494;78;21187;-69
2021/03/09 06:23:00;;;;;;;3.60;2.00;;;;;;;-3.71;65.70;99842.08;1825548;78;21121;-69
2021/03/09 06:25:39;;;;;;;2.87;1.45;;;;;;;-3.66;66.16;99841.88;1802532;78;21947;-69
2021/03/09 06:28:08;;;;;;;;;;;;;;;-3.68;64.82;99847.87;1796005;79;21573;-71
2021/03/09 06:30:40;;;;;;;4.22;1.77;;;;;;;-3.65;65.74;99854.16;1793108;79;20186;-71
2021/03/09 06:33:08;;;;;;;4.58;2.08;;;;;;;-3.62;66.34;99860.98;1793010;80;21213;-72
2021/03/09 06:35:42;;;;;;;4.20;2.10;;;;;;;-3.54;66.37;99856.41;1793126;80;21556;-71
2021/03/09 06:38:22;;;;;;;4.25;1.77;;;;;;;-3.38;66.03;99866.60;1792908;79;21337;-69
2021/03/09 06:41:15;;;;;;;6.00;2.27;;;;;;;-3.27;65.07;99868.34;1793228;80;21651;-72
2021/03/09 06:44:01;;;;;;;4.65;2.20;;;;;;;-3.19;64.22;99865.58;1792819;78;21152;-70
2021/03/09 06:46:29;;;;;;;4.97;2.22;;;;;;;-3.19;63.76;99868.78;1793128;80;21548;-70
2021/03/09 06:49:04;;;;;;;6.17;1.82;;;;;;;-3.18;62.39;99872.58;1793007;78;21596;-71
2021/03/09 06:51:36;;;;;;;4.50;1.85;;;;;;;-3.20;61.51;99865.28;1793177;80;21302;-70
2021/03/09 06:54:11;;;;;;;4.25;1.72;;;;;;;-3.10;62.07;99881.00;1793086;78;21176;-70
2021/03/09 06:56:43;;;;;;;4.12;1.50;;;;;;;-3.08;61.38;99877.14;1793070;80;21140;-70
2021/03/09 06:59:25;;;;;;;3.52;1.30;;;;;;;-3.01;58.84;99890.55;1793001;78;21298;-70
2021/03/09 07:02:08;;;;;;;2.85;1.22;;;;;;;-2.99;58.42;99888.55;1793047;80;21168;-70
2021/03/09 07:04:45;;;;;;;3.62;1.32;;;;;;;-2.99;57.23;99880.56;1792180;79;21174;-69
2021/03/09 07:07:16;;;;;;;2.47;1.10;;;;;;;-2.99;56.78;99891.72;1808719;79;21150;-70
2021/03/09 07:10:16;;;;;;;3.45;1.55;;;;;;;-2.90;57.07;99891.95;1729073;80;21236;-70
2021/03/09 07:12:45;;;;;;;4.72;1.50;;;;;;;-2.82;57.48;99886.05;1681988;83;21582;-66
2021/03/09 07:15:16;;;;;;;3.30;1.62;;;;;;;-2.63;57.49;99892.69;1733683;82;21670;-67
2021/03/09 07:17:47;;;;;;;3.50;1.30;;;;;;;-2.51;57.85;99896.03;1731190;83;21690;-66
2021/03/09 07:20:15;;;;;;;2.90;1.05;;;;;;;-2.42;54.59;99894.61;1701528;83;21180;-66
2021/03/09 07:22:45;;;;;;;4.40;1.60;;;;;;;-2.40;54.99;99900.08;1761012;81;21124;-67
2021/03/09 07:25:16;;;;;;;2.47;1.35;;;;;;;-2.36;55.26;99909.86;1764810;80;21166;-66
2021/03/09 07:28:04;;;;;;;4.28;1.80;;;;;;;-2.35;55.08;99906.19;1764352;79;21164;-65
2021/03/09 07:30:38;;;;;;;4.42;2.05;;;;;;;-2.39;54.80;99900.41;1731226;82;21177;-68
2021/03/09 07:33:05;;;;;;;4.35;1.65;;;;;;;-2.39;55.47;99900.91;1731260;83;21339;-67
2021/03/09 07:35:34;;;;;;;6.50;2.00;;;;;;;-2.35;55.81;99902.20;1731114;83;21302;-67
2021/03/09 07:38:04;;;;;;;3.75;1.77;;;;;;;-2.32;56.08;99898.66;1731450;83;21683;-66
2021/03/09 07:40:34;;;;;;;3.77;2.00;;;;;;;-2.24;56.24;99904.40;1731116;83;21308;-65
2021/03/09 07:43:04;;;;;;;5.45;2.05;;;;;;;-2.24;55.94;99898.56;1717810;83;21167;-66
2021/03/09 07:45:37;;;;;;;4.45;1.87;;;;;;;-2.18;55.83;99893.81;1726322;83;21200;-66
2021/03/09 07:48:13;;;;;;;3.35;1.52;;;;;;;-2.14;53.25;99892.94;1714381;83;21306;-66
2021/03/09 07:50:42;;;;;;;2.83;1.40;;;;;;;-2.09;53.39;99886.02;1717566;83;21200;-66
2021/03/09 07:53:12;;;;;;;2.62;1.45;;;;;;;-2.17;52.07;99890.64;1740039;82;21154;-65
2021/03/09 07:55:43;;;;;;;3.47;1.47;;;;;;;-2.19;52.68;99889.98;1757396;80;21604;-67
2021/03/09 07:58:20;;;;;;;2.33;1.12;;;;;;;-2.25;52.31;99896.90;1769958;79;21214;-67
2021/03/09 08:01:05;;;;;;;2.75;1.45;;;;;;;-2.27;51.84;99896.77;1776488;79;21164;-67
2021/03/09 08:03:40;;;;;;;3.52;1.00;;;;;;;-2.24;51.07;99895.06;1767274;81;21627;-67
2021/03/09 08:06:12;;;;;;;3.52;1.37;;;;;;;-2.43;48.66;99892.45;1764480;81;21619;-66
2021/03/09 08:08:52;;;;;;;3.27;1.32;;;;;;;-2.36;49.17;99895.20;1753538;82;21473;-65
2021/03/09 08:11:27;;;;;;;2.37;1.07;;;;;;;-2.37;46.63;99904.23;1780591;79;21186;-66
2021/03/09 08:14:09;;;;;;;2.62;1.00;;;;;;;-2.33;46.05;99904.16;1806131;78;21547;-65
2021/03/09 08:16:38;;;;;;;3.00;1.10;;;;;;;-2.29;44.61;99902.78;1795485;79;21536;-67
2021/03/09 08:19:13;;;;;;;1.85;0.75;;;;;;;-2.23;44.70;99900.20;1798990;78;21738;-66
2021/03/09 08:22:01;;;;;;;2.58;1.05;;;;;;;-2.05;45.22;99895.80;1800316;79;21160;-66
2021/03/09 08:24:49;;;;;;;2.52;1.10;;;;;;;-1.90;42.31;99898.44;1798688;79;21163;-68
2021/03/09 08:27:32;;;;;;;2.22;0.95;;;;;;;-1.69;42.67;99895.30;1799110;80;21718;-63
2021/03/09 08:30:36;;;;;;;3.05;1.40;;;;;;;-1.64;41.33;99891.57;1798977;78;21164;-64
2021/03/09 08:33:27;;;;;;;3.70;1.22;;;;;;;-1.34;41.30;99881.58;1776703;79;21344;-64
2021/03/09 08:35:55;;;;;;;4.37;1.27;;;;;;;-1.02;40.55;99884.21;1738254;82;21196;-64
2021/03/09 08:38:23;;;;;;;1.80;0.85;;;;;;;-0.65;40.85;99894.58;1803828;79;21160;-65
2021/03/09 08:41:04;;;;;;;1.82;0.78;;;;;;;-0.46;38.36;99890.35;1738202;82;21199;-65
2021/03/09 08:43:32;;;;;;;2.10;0.90;;;;;;;-0.16;38.82;99891.77;1803775;79;21184;-65
2021/03/09 08:46:01;;;;;;;2.05;1.00;;;;;;;-0.14;37.62;99887.53;1738140;82;21242;-62
2021/03/09 08:48:49;;;;;;;3.85;1.57;;;;;;;-0.39;41.08;99905.92;1803888;79;21573;-64
2021/03/09 08:51:44;;;;;;;;;;;;;;;-0.57;43.79;99905.09;1730773;82;21164;-66
2021/03/09 08:54:25;;;;;;;4.20;1.07;;;;;;;-0.76;43.85;99904.47;1776320;79;20264;-66
2021/03/09 08:56:55;;;;;;;3.27;1.55;;;;;;;-1.32;44.11;99912.95;1754042;79;21172;-67
2021/03/09 08:59:28;;;;;;;3.52;1.22;;;;;;;-1.83;46.23;99906.02;1792479;79;21694;-66
2021/03/09 09:02:06;;;;;;;4.30;1.80;;;;;;;-2.07;47.85;99927.19;1783823;79;21307;-66
2021/03/09 09:04:35;;;;;;;3.58;1.60;;;;;;;-2.03;46.57;99925.30;1773971;79;21210;-64
2021/03/09 09:07:31;;;;;;;2.62;1.30;;;;;;;-1.92;47.78;99925.83;1738323;82;21164;-65
2021/03/09 09:10:09;;;;;;;4.78;1.60;;;;;;;-1.79;49.26;99924.64;1803282;79;21163;-65
2021/03/09 09:12:44;;;;;;;2.70;1.22;;;;;;;-1.46;49.51;99931.69;1790235;79;21172;-67
2021/03/09 09:15:21;;;;;;;5.40;2.40;;;;;;;-1.29;48.67;99931.76;1779888;79;21259;-67
2021/03/09 09:17:55;;;;;;;;;;;;;;;-1.39;49.86;99932.59;1807064;79;21133;-66
2021/03/09 09:20:36;;;;;;;6.28;2.30;;;;;;;-1.34;50.10;99935.50;1781131;79;20188;-66
2021/03/09 09:23:26;;;;;;;2.45;1.50;;;;;;;-1.34;50.02;99944.34;1772143;81;21186;-67
2021/03/09 09:26:00;;;;;;;4.00;1.75;;;;;;;-1.30;48.08;99947.45;1772328;81;21325;-66
2021/03/09 09:28:30;;;;;;;4.40;1.82;;;;;;;-1.22;47.86;99948.67;1772420;81;21185;-66
2021/03/09 09:31:07;;;;;;;3.25;1.32;;;;;;;-1.28;46.62;99950.28;1773989;79;21581;-67
2021/03/09 09:33:36;;;;;;;3.70;1.72;;;;;;;-1.14;46.55;99953.90;1754135;79;21201;-67
2021/03/09 09:36:04;;;;;;;3.62;2.08;;;;;;;-0.94;47.20;99941.53;1713718;82;21232;-67
2021/03/09 09:38:32;;;;;;;2.98;1.47;;;;;;;-0.77;47.61;99945.58;1709406;82;21210;-65
2021/03/09 09:41:00;;;;;;;3.65;1.80;;;;;;;-0.59;45.18;99947.77;1738200;81;21186;-64
2021/03/09 09:43:31;;;;;;;2.45;1.30;;;;;;;-0.69;45.13;99949.96;1753137;79;21149;-66
2021/03/09 09:46:05;;;;;;;3.70;1.70;;;;;;;-0.89;45.20;99957.00;1803725;79;21327;-65
2021/03/09 09:48:38;;;;;;;2.65;1.45;;;;;;;-1.18;45.00;99953.95;1738165;81;21640;-65
2021/03/09 09:51:16;;;;;;;2.77;1.40;;;;;;;-1.42;46.54;99961.01;1803660;79;21164;-65
2021/03/09 09:53:47;;;;;;;4.30;1.30;;;;;;;-1.43;46.07;99956.17;1728305;81;21190;-67
2021/03/09 09:56:23;;;;;;;2.80;1.60;;;;;;;-1.55;46.37;99961.67;1719601;81;21152;-68
2021/03/09 09:58:55;;;;;;;4.17;1.92;;;;;;;-1.54;47.14;99957.49;1731566;82;21317;-66
2021/03/09 10:01:35;;;;;;;4.10;2.15;;;;;;;-1.46;47.10;99956.55;1786739;80;21176;-66
2021/03/09 10:04:05;;;;;;;4.58;2.22;;;;;;;-1.38;47.01;99952.94;1761531;80;21295;-66
2021/03/09 10:06:47;;;;;;;1.92;1.00;;;;;;;-1.27;46.08;99957.25;1734171;82;21768;-67
2021/03/09 10:09:24;;;;;;;3.02;1.37;;;;;;;-1.27;45.65;99969.77;1740469;81;21614;-66
2021/03/09 10:11:58;;;;;;;2.90;1.20;;;;;;;-1.41;44.29;99959.97;1769053;81;21637;-66
2021/03/09 10:14:33;;;;;;;3.22;1.25;;;;;;;-1.56;44.97;99956.84;1768713;80;21208;-65
2021/03/09 10:17:01;;;;;;;2.80;1.40;;;;;;;-1.60;44.04;99966.27;1768846;81;21312;-66
2021/03/09 10:19:37;;;;;;;3.40;1.50;;;;;;;-1.53;44.22;99963.16;1771167;79;21212;-66
2021/03/09 10:22:18;;;;;;;2.92;1.22;;;;;;;-1.35;44.30;99958.73;1728904;83;21221;-66
2021/03/09 10:24:46;;;;;;;3.22;1.40;;;;;;;-1.22;43.58;99956.69;1688770;83;21650;-66
2021/03/09 10:27:16;;;;;;;3.55;1.50;;;;;;;-1.19;42.12;99963.81;1674945;86;21216;-67
2021/03/09 10:29:44;;;;;;;4.72;1.50;;;;;;;-1.28;41.95;99966.81;1687575;83;21204;-66
2021/03/09 10:32:18;;;;;;;3.17;1.67;;;;;;;-1.26;42.31;99964.76;1763093;80;21183;-66
2021/03/09 10:34:49;;;;;;;5.00;1.47;;;;;;;-1.20;43.05;99962.66;1709429;83;21327;-66
2021/03/09 10:37:17;;;;;;;3.17;1.50;;;;;;;-1.10;41.36;99969.33;1737754;82;21165;-67
2021/03/09 10:39:58;;;;;;;3.08;1.50;;;;;;;-1.10;40.23;99957.84;1772806;80;21211;-66
2021/03/09 10:42:33;;;;;;;3.45;1.62;;;;;;;-1.16;40.28;99961.27;1778856;80;21292;-66
2021/03/09 10:45:29;;;;;;;3.37;1.52;;;;;;;-1.12;39.24;99964.70;1766736;79;21156;-65
2021/03/09 10:48:02;;;;;;;5.10;1.72;;;;;;;-1.17;40.03;99965.77;1758090;80;21172;-65
2021/03/09 10:50:42;;;;;;;2.87;1.47;;;;;;;-1.28;40.04;99967.64;1757616;80;21167;-66
2021/03/09 10:53:09;;;;;;;3.35;1.72;;;;;;;-1.41;40.36;99966.64;1757999;81;21301;-66
2021/03/09 10:55:38;;;;;;;3.02;1.35;;;;;;;-1.45;41.80;99970.73;1757812;79;21196;-66
2021/03/09 10:58:06;;;;;;;2.75;1.00;;;;;;;-1.52;39.54;99970.63;1757943;81;21584;-66
2021/03/09 11:00:34;;;;;;;3.08;1.40;;;;;;;-1.37;39.17;99963.92;1770890;80;21272;-66
2021/03/09 11:03:01;;;;;;;2.77;1.20;;;;;;;-1.39;39.50;99964.63;1758812;80;21153;-65
2021/03/09 11:05:29;;;;;;;4.45;1.27;;;;;;;-1.35;40.21;99960.57;1768155;80;21153;-64
2021/03/09 11:07:56;;;;;;;3.30;1.42;;;;;;;-1.32;40.58;99965.53;1757631;81;21224;-66
2021/03/09 11:10:24;;;;;;;2.15;1.17;;;;;;;-1.27;41.04;99971.94;1757749;80;21155;-65
2021/03/09 11:12:52;;;;;;;2.95;1.40;;;;;;;-1.28;39.82;99966.30;1734394;81;21170;-65
2021/03/09 11:15:19;;;;;;;3.20;1.40;;;;;;;-1.24;40.14;99968.88;1758040;80;21175;-66
2021/03/09 11:17:46;;;;;;;4.20;1.50;;;;;;;-1.17;39.72;99977.80;1757844;81;21157;-67
2021/03/09 11:20:15;;;;;;;4.40;1.60;;;;;;;-1.20;38.93;99973.34;1772054;80;21150;-66
2021/03/09 11:22:43;;;;;;;2.92;1.20;;;;;;;-1.14;39.36;99973.94;1757736;80;21710;-66
2021/03/09 11:25:13;;;;;;;2.47;1.20;;;;;;;-1.26;38.90;99978.11;1782299;80;21161;-64
2021/03/09 11:27:40;;;;;;;2.98;1.20;;;;;;;-1.35;40.01;99976.59;1788892;80;21174;-64
2021/03/09 11:30:10;;;;;;;2.50;1.42;;;;;;;-1.39;39.07;99979.31;1769335;80;21169;-66
2021/03/09 11:32:37;;;;;;;3.65;1.50;;;;;;;-1.39;39.45;99980.15;1755280;81;21213;-66
2021/03/09 11:35:07;;;;;;;2.70;1.20;;;;;;;-1.41;39.29;99978.66;1751986;82;21147;-65
2021/03/09 11:37:34;;;;;;;3.30;1.72;;;;;;;-1.28;39.10;99974.81;1752336;82;21159;-63
2021/03/09 11:40:05;;;;;;;2.22;1.00;;;;;;;-1.17;38.70;99957.76;1770466;80;21185;-65
2021/03/09 11:42:33;;;;;;;2.87;1.25;;;;;;;-1.13;38.76;99974.23;1783265;80;21150;-66
2021/03/09 11:45:01;;;;;;;2.67;1.40;;;;;;;-1.19;40.07;99975.83;1714599;83;21165;-66
2021/03/09 11:47:29;;;;;;;3.92;1.35;;;;;;;-1.32;38.76;99971.70;1699774;83;21625;-66
2021/03/09 11:49:57;;;;;;;2.62;1.30;;;;;;;-1.35;39.18;99968.08;1758295;80;21188;-66
2021/03/09 11:52:24;;;;;;;3.80;1.30;;;;;;;-1.44;38.58;99964.36;1752324;82;21321;-66
2021/03/09 11:54:53;;;;;;;2.58;1.35;;;;;;;-1.71;39.69;99974.75;1752306;80;21190;-65
2021/03/09 11:57:20;;;;;;;3.15;1.50;;;;;;;-1.71;39.78;99969.91;1752368;81;21191;-65
2021/03/09 11:59:48;;;;;;;2.85;1.07;;;;;;;-1.73;39.90;99979.43;1752171;82;21615;-65